sensor_id;sensor_type;location;lat;lon;timestamp;P1;durP1;ratioP1;P2;durP2;ratioP2
23768;SDS011;12064;50.890;5.424;2024-02-23T00:06:08;2.90;;;0.63;;
23768;SDS011;12064;50.890;5.424;2024-02-23T00:14:59;2.10;;;0.57;;
23768;SDS011;12064;50.890;5.424;2024-02-23T00:23:49;0.68;;;0.45;;
23768;SDS011;12064;50.890;5.424;2024-02-23T00:32:40;1.00;;;0.50;;
23768;SDS011;12064;50.890;5.424;2024-02-23T00:41:31;0.83;;;0.40;;
23768;SDS011;12064;50.890;5.424;2024-02-23T00:50:21;0.57;;;0.50;;
23768;SDS011;12064;50.890;5.424;2024-02-23T00:59:13;1.45;;;0.50;;
23768;SDS011;12064;50.890;5.424;2024-02-23T01:08:04;1.52;;;0.47;;
23768;SDS011;12064;50.890;5.424;2024-02-23T01:16:55;0.82;;;0.40;;
23768;SDS011;12064;50.890;5.424;2024-02-23T01:25:46;1.30;;;0.50;;
23768;SDS011;12064;50.890;5.424;2024-02-23T01:34:36;2.00;;;0.50;;
23768;SDS011;12064;50.890;5.424;2024-02-23T01:43:27;0.80;;;0.50;;
23768;SDS011;12064;50.890;5.424;2024-02-23T01:52:18;0.85;;;0.47;;
23768;SDS011;12064;50.890;5.424;2024-02-23T02:01:09;1.25;;;0.40;;
23768;SDS011;12064;50.890;5.424;2024-02-23T02:10:00;1.63;;;0.47;;
23768;SDS011;12064;50.890;5.424;2024-02-23T02:18:50;0.98;;;0.38;;
23768;SDS011;12064;50.890;5.424;2024-02-23T02:27:41;3.00;;;0.50;;
23768;SDS011;12064;50.890;5.424;2024-02-23T02:36:32;0.90;;;0.40;;
23768;SDS011;12064;50.890;5.424;2024-02-23T02:45:23;1.83;;;0.50;;
23768;SDS011;12064;50.890;5.424;2024-02-23T02:54:13;1.13;;;0.40;;
23768;SDS011;12064;50.890;5.424;2024-02-23T03:03:04;0.90;;;0.40;;
23768;SDS011;12064;50.890;5.424;2024-02-23T03:11:55;1.77;;;0.55;;
23768;SDS011;12064;50.890;5.424;2024-02-23T03:20:46;3.20;;;0.50;;
23768;SDS011;12064;50.890;5.424;2024-02-23T03:29:38;1.35;;;0.50;;
23768;SDS011;12064;50.890;5.424;2024-02-23T03:38:29;2.15;;;0.50;;
23768;SDS011;12064;50.890;5.424;2024-02-23T03:47:20;1.70;;;0.60;;
23768;SDS011;12064;50.890;5.424;2024-02-23T03:56:11;0.93;;;0.40;;
23768;SDS011;12064;50.890;5.424;2024-02-23T04:05:01;1.63;;;0.50;;
23768;SDS011;12064;50.890;5.424;2024-02-23T04:13:52;1.35;;;0.45;;
23768;SDS011;12064;50.890;5.424;2024-02-23T04:22:44;1.13;;;0.40;;
23768;SDS011;12064;50.890;5.424;2024-02-23T04:31:38;0.70;;;0.40;;
23768;SDS011;12064;50.890;5.424;2024-02-23T04:40:28;0.90;;;0.52;;
23768;SDS011;12064;50.890;5.424;2024-02-23T04:49:19;1.47;;;0.40;;
23768;SDS011;12064;50.890;5.424;2024-02-23T04:58:09;1.77;;;0.50;;
23768;SDS011;12064;50.890;5.424;2024-02-23T05:07:02;0.77;;;0.40;;
23768;SDS011;12064;50.890;5.424;2024-02-23T05:15:55;0.70;;;0.40;;
23768;SDS011;12064;50.890;5.424;2024-02-23T05:24:47;0.88;;;0.50;;
23768;SDS011;12064;50.890;5.424;2024-02-23T05:33:38;1.15;;;0.50;;
23768;SDS011;12064;50.890;5.424;2024-02-23T05:42:28;1.15;;;0.50;;
23768;SDS011;12064;50.890;5.424;2024-02-23T05:51:19;0.57;;;0.40;;
23768;SDS011;12064;50.890;5.424;2024-02-23T06:00:10;2.87;;;0.50;;
23768;SDS011;12064;50.890;5.424;2024-02-23T06:09:01;1.13;;;0.50;;
23768;SDS011;12064;50.890;5.424;2024-02-23T06:17:52;0.88;;;0.50;;
23768;SDS011;12064;50.890;5.424;2024-02-23T06:26:43;0.57;;;0.40;;
23768;SDS011;12064;50.890;5.424;2024-02-23T06:35:35;1.10;;;0.30;;
23768;SDS011;12064;50.890;5.424;2024-02-23T06:44:26;0.90;;;0.40;;
23768;SDS011;12064;50.890;5.424;2024-02-23T06:53:17;1.40;;;0.45;;
23768;SDS011;12064;50.890;5.424;2024-02-23T07:02:07;1.10;;;0.57;;
23768;SDS011;12064;50.890;5.424;2024-02-23T07:10:58;1.83;;;0.57;;
23768;SDS011;12064;50.890;5.424;2024-02-23T07:19:48;0.83;;;0.63;;
23768;SDS011;12064;50.890;5.424;2024-02-23T07:28:40;1.02;;;0.50;;
23768;SDS011;12064;50.890;5.424;2024-02-23T07:37:31;2.03;;;0.50;;
23768;SDS011;12064;50.890;5.424;2024-02-23T07:46:21;2.30;;;0.50;;
23768;SDS011;12064;50.890;5.424;2024-02-23T07:55:13;1.50;;;0.70;;
23768;SDS011;12064;50.890;5.424;2024-02-23T08:04:03;2.22;;;0.70;;
23768;SDS011;12064;50.890;5.424;2024-02-23T08:12:54;2.33;;;0.65;;
23768;SDS011;12064;50.890;5.424;2024-02-23T08:21:45;2.77;;;0.60;;
23768;SDS011;12064;50.890;5.424;2024-02-23T08:30:35;1.73;;;0.70;;
23768;SDS011;12064;50.890;5.424;2024-02-23T08:39:26;3.30;;;0.70;;
23768;SDS011;12064;50.890;5.424;2024-02-23T08:48:16;1.85;;;0.60;;
23768;SDS011;12064;50.890;5.424;2024-02-23T08:57:08;2.00;;;0.63;;
23768;SDS011;12064;50.890;5.424;2024-02-23T09:05:58;2.40;;;0.70;;
23768;SDS011;12064;50.890;5.424;2024-02-23T09:14:49;1.60;;;0.70;;
23768;SDS011;12064;50.890;5.424;2024-02-23T09:23:40;3.23;;;0.80;;
23768;SDS011;12064;50.890;5.424;2024-02-23T09:32:30;3.75;;;0.90;;
23768;SDS011;12064;50.890;5.424;2024-02-23T09:41:22;3.38;;;0.80;;
23768;SDS011;12064;50.890;5.424;2024-02-23T09:50:13;2.03;;;0.60;;
23768;SDS011;12064;50.890;5.424;2024-02-23T09:59:07;1.48;;;0.60;;
23768;SDS011;12064;50.890;5.424;2024-02-23T10:07:58;2.67;;;0.77;;
23768;SDS011;12064;50.890;5.424;2024-02-23T10:16:49;2.63;;;0.60;;
23768;SDS011;12064;50.890;5.424;2024-02-23T10:25:43;2.60;;;0.73;;
23768;SDS011;12064;50.890;5.424;2024-02-23T10:34:34;2.17;;;0.60;;
23768;SDS011;12064;50.890;5.424;2024-02-23T10:43:33;2.05;;;0.70;;
23768;SDS011;12064;50.890;5.424;2024-02-23T10:52:31;2.75;;;0.88;;
23768;SDS011;12064;50.890;5.424;2024-02-23T11:01:23;1.83;;;0.60;;
23768;SDS011;12064;50.890;5.424;2024-02-23T11:10:15;0.82;;;0.43;;
23768;SDS011;12064;50.890;5.424;2024-02-23T11:19:06;1.08;;;0.60;;
23768;SDS011;12064;50.890;5.424;2024-02-23T11:28:01;1.00;;;0.60;;
23768;SDS011;12064;50.890;5.424;2024-02-23T11:36:51;1.40;;;0.43;;
23768;SDS011;12064;50.890;5.424;2024-02-23T11:45:46;2.83;;;0.60;;
23768;SDS011;12064;50.890;5.424;2024-02-23T11:54:37;1.05;;;0.50;;
23768;SDS011;12064;50.890;5.424;2024-02-23T12:03:31;1.50;;;0.60;;
23768;SDS011;12064;50.890;5.424;2024-02-23T12:12:22;2.70;;;0.68;;
23768;SDS011;12064;50.890;5.424;2024-02-23T12:21:13;1.83;;;0.60;;
23768;SDS011;12064;50.890;5.424;2024-02-23T12:30:04;3.10;;;0.80;;
23768;SDS011;12064;50.890;5.424;2024-02-23T12:38:55;2.78;;;0.75;;
23768;SDS011;12064;50.890;5.424;2024-02-23T12:47:45;5.73;;;0.87;;
23768;SDS011;12064;50.890;5.424;2024-02-23T12:56:36;1.60;;;0.83;;
23768;SDS011;12064;50.890;5.424;2024-02-23T13:05:27;2.35;;;0.60;;
23768;SDS011;12064;50.890;5.424;2024-02-23T13:14:17;3.55;;;0.88;;
23768;SDS011;12064;50.890;5.424;2024-02-23T13:23:08;2.50;;;0.80;;
23768;SDS011;12064;50.890;5.424;2024-02-23T13:32:02;1.45;;;0.60;;
23768;SDS011;12064;50.890;5.424;2024-02-23T13:40:53;2.47;;;0.57;;
23768;SDS011;12064;50.890;5.424;2024-02-23T13:49:44;2.13;;;0.65;;
23768;SDS011;12064;50.890;5.424;2024-02-23T13:58:34;1.48;;;0.55;;
23768;SDS011;12064;50.890;5.424;2024-02-23T14:07:25;2.63;;;0.40;;
23768;SDS011;12064;50.890;5.424;2024-02-23T14:16:16;1.80;;;0.43;;
23768;SDS011;12064;50.890;5.424;2024-02-23T14:25:06;1.50;;;0.60;;
23768;SDS011;12064;50.890;5.424;2024-02-23T14:33:57;1.27;;;0.55;;
23768;SDS011;12064;50.890;5.424;2024-02-23T14:42:48;1.20;;;0.60;;
23768;SDS011;12064;50.890;5.424;2024-02-23T14:51:39;2.38;;;0.50;;
23768;SDS011;12064;50.890;5.424;2024-02-23T15:00:32;0.98;;;0.57;;
23768;SDS011;12064;50.890;5.424;2024-02-23T15:09:23;1.30;;;0.50;;
23768;SDS011;12064;50.890;5.424;2024-02-23T15:18:14;2.92;;;0.60;;
23768;SDS011;12064;50.890;5.424;2024-02-23T15:27:04;1.00;;;0.53;;
23768;SDS011;12064;50.890;5.424;2024-02-23T15:35:55;0.77;;;0.50;;
23768;SDS011;12064;50.890;5.424;2024-02-23T15:44:46;1.08;;;0.40;;
23768;SDS011;12064;50.890;5.424;2024-02-23T15:53:37;2.70;;;0.70;;
23768;SDS011;12064;50.890;5.424;2024-02-23T16:02:28;2.38;;;0.50;;
23768;SDS011;12064;50.890;5.424;2024-02-23T16:11:19;2.17;;;0.40;;
23768;SDS011;12064;50.890;5.424;2024-02-23T16:20:10;1.45;;;0.50;;
23768;SDS011;12064;50.890;5.424;2024-02-23T16:29:01;1.13;;;0.50;;
23768;SDS011;12064;50.890;5.424;2024-02-23T16:37:51;1.25;;;0.70;;
23768;SDS011;12064;50.890;5.424;2024-02-23T16:46:42;1.07;;;0.53;;
23768;SDS011;12064;50.890;5.424;2024-02-23T16:55:33;1.70;;;0.60;;
23768;SDS011;12064;50.890;5.424;2024-02-23T17:04:24;1.30;;;0.60;;
23768;SDS011;12064;50.890;5.424;2024-02-23T17:13:15;1.20;;;0.63;;
23768;SDS011;12064;50.890;5.424;2024-02-23T17:22:09;2.22;;;0.60;;
23768;SDS011;12064;50.890;5.424;2024-02-23T17:31:00;1.80;;;0.50;;
23768;SDS011;12064;50.890;5.424;2024-02-23T17:39:51;2.00;;;0.70;;
23768;SDS011;12064;50.890;5.424;2024-02-23T17:48:42;1.50;;;0.60;;
23768;SDS011;12064;50.890;5.424;2024-02-23T17:57:32;1.77;;;0.65;;
23768;SDS011;12064;50.890;5.424;2024-02-23T18:06:23;1.67;;;0.80;;
23768;SDS011;12064;50.890;5.424;2024-02-23T18:15:14;1.50;;;0.75;;
23768;SDS011;12064;50.890;5.424;2024-02-23T18:24:05;2.33;;;0.60;;
23768;SDS011;12064;50.890;5.424;2024-02-23T18:32:56;1.90;;;0.80;;
23768;SDS011;12064;50.890;5.424;2024-02-23T18:41:47;2.65;;;0.80;;
23768;SDS011;12064;50.890;5.424;2024-02-23T18:50:38;3.58;;;0.85;;
23768;SDS011;12064;50.890;5.424;2024-02-23T18:59:28;3.63;;;0.80;;
23768;SDS011;12064;50.890;5.424;2024-02-23T19:08:19;1.02;;;0.80;;
23768;SDS011;12064;50.890;5.424;2024-02-23T19:17:09;1.90;;;0.85;;
23768;SDS011;12064;50.890;5.424;2024-02-23T19:26:00;1.95;;;1.00;;
23768;SDS011;12064;50.890;5.424;2024-02-23T19:34:52;2.13;;;0.80;;
23768;SDS011;12064;50.890;5.424;2024-02-23T19:43:43;1.77;;;0.85;;
23768;SDS011;12064;50.890;5.424;2024-02-23T19:52:34;1.20;;;0.70;;
23768;SDS011;12064;50.890;5.424;2024-02-23T20:01:24;2.63;;;0.70;;
23768;SDS011;12064;50.890;5.424;2024-02-23T20:10:15;1.27;;;0.60;;
23768;SDS011;12064;50.890;5.424;2024-02-23T20:19:08;1.92;;;0.80;;
23768;SDS011;12064;50.890;5.424;2024-02-23T20:27:58;2.03;;;0.70;;
23768;SDS011;12064;50.890;5.424;2024-02-23T20:36:49;2.00;;;1.08;;
23768;SDS011;12064;50.890;5.424;2024-02-23T20:45:40;3.72;;;0.77;;
23768;SDS011;12064;50.890;5.424;2024-02-23T20:54:31;3.08;;;0.90;;
23768;SDS011;12064;50.890;5.424;2024-02-23T21:03:21;4.25;;;1.10;;
23768;SDS011;12064;50.890;5.424;2024-02-23T21:12:12;1.35;;;0.77;;
23768;SDS011;12064;50.890;5.424;2024-02-23T21:21:04;4.82;;;1.10;;
23768;SDS011;12064;50.890;5.424;2024-02-23T21:29:54;2.70;;;0.95;;
23768;SDS011;12064;50.890;5.424;2024-02-23T21:38:46;3.30;;;0.82;;
23768;SDS011;12064;50.890;5.424;2024-02-23T21:47:37;5.55;;;0.90;;
23768;SDS011;12064;50.890;5.424;2024-02-23T21:56:28;4.65;;;1.00;;
23768;SDS011;12064;50.890;5.424;2024-02-23T22:05:18;2.80;;;0.90;;
23768;SDS011;12064;50.890;5.424;2024-02-23T22:14:10;3.63;;;0.90;;
23768;SDS011;12064;50.890;5.424;2024-02-23T22:23:01;1.98;;;0.90;;
23768;SDS011;12064;50.890;5.424;2024-02-23T22:31:52;2.47;;;0.85;;
23768;SDS011;12064;50.890;5.424;2024-02-23T22:40:43;2.33;;;0.80;;
23768;SDS011;12064;50.890;5.424;2024-02-23T22:49:36;1.85;;;0.75;;
23768;SDS011;12064;50.890;5.424;2024-02-23T22:58:27;2.70;;;0.90;;
23768;SDS011;12064;50.890;5.424;2024-02-23T23:07:18;3.05;;;1.00;;
23768;SDS011;12064;50.890;5.424;2024-02-23T23:16:09;1.75;;;0.80;;
23768;SDS011;12064;50.890;5.424;2024-02-23T23:24:59;2.55;;;0.80;;
23768;SDS011;12064;50.890;5.424;2024-02-23T23:33:50;2.30;;;0.90;;
23768;SDS011;12064;50.890;5.424;2024-02-23T23:42:41;2.30;;;0.73;;
23768;SDS011;12064;50.890;5.424;2024-02-23T23:51:32;2.73;;;0.77;;
